createdAt,value
2018-09-26T00:00:14.715Z,97288.81
2018-09-26T00:02:44.749Z,97284.38
2018-09-26T00:05:13.781Z,97274.12
2018-09-26T00:07:42.877Z,97270.20
2018-09-26T00:10:11.909Z,97276.03
2018-09-26T00:12:40.950Z,97276.88
2018-09-26T00:15:09.985Z,97285.38
2018-09-26T00:17:39.034Z,97287.97
2018-09-26T00:20:08.070Z,97286.64
2018-09-26T00:22:37.109Z,97277.53
2018-09-26T00:25:07.156Z,97274.77
2018-09-26T00:27:37.158Z,97270.65
2018-09-26T00:30:06.202Z,97262.28
2018-09-26T00:32:35.293Z,97267.34
2018-09-26T00:35:04.324Z,97259.98
2018-09-26T00:37:33.352Z,97257.48
2018-09-26T00:40:02.394Z,97254.20
2018-09-26T00:42:31.420Z,97254.47
2018-09-26T00:45:00.497Z,97250.66
2018-09-26T00:47:29.521Z,97242.67
2018-09-26T00:49:58.554Z,97231.52
2018-09-26T00:52:27.578Z,97227.47
2018-09-26T00:57:33.320Z,97239.44
2018-09-26T01:00:02.357Z,97247.48
2018-09-26T01:02:31.405Z,97234.70
2018-09-26T01:05:00.436Z,97214.78
2018-09-26T01:07:29.456Z,97207.04
2018-09-26T01:09:58.504Z,97208.12
2018-09-26T01:12:27.534Z,97206.29
2018-09-26T01:14:56.576Z,97204.02
2018-09-26T01:17:27.556Z,97199.19
2018-09-26T01:19:57.613Z,97197.09
2018-09-26T01:25:02.372Z,97180.89
2018-09-26T01:27:32.358Z,97173.97
2018-09-26T01:30:01.423Z,97174.09
2018-09-26T01:32:31.469Z,97175.59
2018-09-26T01:35:00.504Z,97168.41
2018-09-26T01:37:29.528Z,97166.59
2018-09-26T01:39:58.590Z,97159.34
2018-09-26T01:42:27.616Z,97151.81
2018-09-26T01:44:58.716Z,97151.61
2018-09-26T01:47:27.745Z,97144.59
2018-09-26T01:49:56.863Z,97148.45
2018-09-26T01:52:26.830Z,97150.45
2018-09-26T01:54:55.868Z,97149.14
2018-09-26T01:57:24.888Z,97145.77
2018-09-26T01:59:53.940Z,97143.55
2018-09-26T02:02:26.508Z,97142.70
2018-09-26T02:04:55.702Z,97143.19
2018-09-26T02:14:09.840Z,97135.51
2018-09-26T02:16:42.932Z,97141.34
2018-09-26T02:19:15.828Z,97141.92
2018-09-26T02:21:44.868Z,97141.00
2018-09-26T02:24:13.906Z,97140.06
2018-09-26T02:26:42.933Z,97134.02
2018-09-26T02:29:11.976Z,97138.34
2018-09-26T02:31:41.020Z,97138.82
2018-09-26T02:34:10.052Z,97135.99
2018-09-26T02:36:39.104Z,97130.45
2018-09-26T02:39:08.151Z,97129.84
2018-09-26T02:41:37.172Z,97127.94
2018-09-26T02:44:06.301Z,97126.21
2018-09-26T02:46:35.472Z,97126.11
2018-09-26T02:49:04.503Z,97133.50
2018-09-26T02:51:33.542Z,97129.00
2018-09-26T02:54:02.572Z,97121.49
2018-09-26T02:56:31.620Z,97123.45
2018-09-26T02:59:01.626Z,97125.53
2018-09-26T03:01:30.657Z,97118.73
2018-09-26T03:03:59.704Z,97112.70
2018-09-26T03:06:28.736Z,97110.17
2018-09-26T03:11:33.501Z,97105.27
2018-09-26T03:14:04.509Z,97106.00
2018-09-26T03:16:35.552Z,97109.48
2018-09-26T03:19:04.598Z,97101.85
2018-09-26T03:21:33.676Z,97099.41
2018-09-26T03:24:02.774Z,97101.95
2018-09-26T03:26:31.778Z,97100.36
2018-09-26T03:29:01.779Z,97100.01
2018-09-26T03:31:30.845Z,97104.09
2018-09-26T03:33:59.888Z,97101.65
2018-09-26T03:36:29.060Z,97109.20
2018-09-26T03:41:34.996Z,97119.38
2018-09-26T03:44:04.036Z,97122.59
2018-09-26T03:46:33.081Z,97122.91
2018-09-26T03:49:03.067Z,97119.75
2018-09-26T03:51:33.062Z,97116.05
2018-09-26T03:54:02.184Z,97115.28
2018-09-26T03:56:31.164Z,97111.27
2018-09-26T03:59:00.203Z,97104.56
2018-09-26T04:01:30.559Z,97098.95
2018-09-26T04:03:59.611Z,97098.83
2018-09-26T04:06:28.645Z,97100.40
2018-09-26T04:08:57.692Z,97096.86
2018-09-26T04:11:26.717Z,97095.67
2018-09-26T04:16:31.498Z,97099.30
2018-09-26T04:19:00.552Z,97101.27
2018-09-26T04:21:31.586Z,97095.18
2018-09-26T04:24:00.624Z,97087.14
2018-09-26T04:26:30.665Z,97082.11
2018-09-26T04:28:59.667Z,97080.89
2018-09-26T04:31:28.658Z,97080.45
2018-09-26T04:33:57.725Z,97091.42
2018-09-26T04:36:27.728Z,97093.11
2018-09-26T04:38:56.860Z,97088.69
2018-09-26T04:41:25.801Z,97082.52
2018-09-26T04:43:54.844Z,97068.58
2018-09-26T04:46:23.905Z,97072.38
2018-09-26T04:48:52.949Z,97069.20
2018-09-26T04:51:23.965Z,97069.45
2018-09-26T04:53:53.902Z,97066.56
2018-09-26T04:58:58.674Z,97067.59
2018-09-26T05:01:28.645Z,97073.25
2018-09-26T05:03:57.705Z,97075.52
2018-09-26T05:06:26.742Z,97082.70
2018-09-26T05:08:55.788Z,97091.91
2018-09-26T05:11:24.801Z,97096.69
2018-09-26T05:13:53.837Z,97102.77
2018-09-26T05:16:22.868Z,97102.06
2018-09-26T05:18:51.893Z,97105.09
2018-09-26T05:21:20.940Z,97107.45
2018-09-26T05:23:50.004Z,97103.25
2018-09-26T05:26:19.180Z,97104.52
2018-09-26T05:28:50.171Z,97110.67
2018-09-26T05:31:19.228Z,97113.95
2018-09-26T05:33:48.270Z,97115.11
2018-09-26T05:36:18.333Z,97116.61
2018-09-26T05:41:24.577Z,97126.25
2018-09-26T05:43:53.604Z,97125.41
2018-09-26T05:46:23.609Z,97125.41
2018-09-26T05:48:52.778Z,97126.56
2018-09-26T05:51:21.819Z,97125.20
2018-09-26T05:56:39.969Z,97131.89
2018-09-26T05:59:23.309Z,97134.25
2018-09-26T06:02:03.378Z,97132.34
2018-09-26T06:04:44.553Z,97129.35
2018-09-26T06:07:13.732Z,97128.59
2018-09-26T06:12:18.500Z,97123.88
2018-09-26T06:14:49.912Z,97121.19
2018-09-26T06:17:18.945Z,97129.03
2018-09-26T06:19:51.712Z,97134.98
2018-09-26T06:22:20.751Z,97141.13
2018-09-26T06:24:50.852Z,97144.14
2018-09-26T06:27:20.728Z,97142.48
2018-09-26T06:29:49.750Z,97146.98
2018-09-26T06:32:18.788Z,97154.75
2018-09-26T06:34:47.826Z,97156.88
2018-09-26T06:37:16.868Z,97157.64
2018-09-26T06:39:45.937Z,97167.16
2018-09-26T06:42:15.026Z,97169.95
2018-09-26T06:44:46.062Z,97165.45
2018-09-26T06:47:18.807Z,97166.77
2018-09-26T06:49:47.857Z,97166.14
2018-09-26T06:52:16.887Z,97160.59
2018-09-26T06:54:45.925Z,97164.06
2018-09-26T06:57:14.970Z,97160.06
2018-09-26T06:59:44.016Z,97157.27
2018-09-26T07:04:48.743Z,97157.98
2018-09-26T07:07:17.822Z,97156.53
2018-09-26T07:09:46.859Z,97155.55
2018-09-26T07:14:51.581Z,97139.99
2018-09-26T07:17:20.897Z,97138.66
2018-09-26T07:19:49.961Z,97135.42
2018-09-26T07:22:19.138Z,97132.58
2018-09-26T07:24:48.147Z,97132.04
2018-09-26T07:27:19.084Z,97129.95
2018-09-26T07:32:28.416Z,97130.94
2018-09-26T07:37:33.217Z,97130.30
2018-09-26T07:40:02.248Z,97129.52
2018-09-26T07:45:07.089Z,97118.06
2018-09-26T07:47:36.125Z,97114.14
2018-09-26T07:50:05.156Z,97111.38
2018-09-26T07:52:34.180Z,97115.92
2018-09-26T07:55:03.217Z,97125.15
2018-09-26T07:57:32.237Z,97127.11
2018-09-26T08:00:01.330Z,97125.20
2018-09-26T08:05:06.073Z,97119.70
2018-09-26T08:07:37.114Z,97115.34
2018-09-26T08:10:06.148Z,97114.27
2018-09-26T08:12:36.293Z,97124.06
2018-09-26T08:15:05.338Z,97130.86
2018-09-26T08:17:34.371Z,97128.09
2018-09-26T08:20:03.401Z,97129.14
2018-09-26T08:22:32.465Z,97130.38
2018-09-26T08:25:01.512Z,97131.72
2018-09-26T08:27:30.581Z,97130.36
2018-09-26T08:32:36.354Z,97137.92
2018-09-26T08:35:05.400Z,97136.63
2018-09-26T08:37:34.448Z,97136.65
2018-09-26T08:42:39.210Z,97130.23
2018-09-26T08:45:10.229Z,97128.84
2018-09-26T08:47:39.523Z,97127.27
2018-09-26T08:50:08.567Z,97119.37
2018-09-26T08:52:37.821Z,97119.86
2018-09-26T08:55:06.881Z,97119.23
2018-09-26T08:57:35.988Z,97121.80
2018-09-26T09:00:05.049Z,97127.96
2018-09-26T09:05:09.908Z,97127.76
2018-09-26T09:07:38.956Z,97122.09
2018-09-26T09:12:43.756Z,97116.81
2018-09-26T09:15:12.814Z,97108.96
2018-09-26T09:17:44.000Z,97104.02
2018-09-26T09:20:13.072Z,97109.63
2018-09-26T09:22:42.058Z,97107.95
2018-09-26T09:25:11.117Z,97106.80
2018-09-26T09:30:15.964Z,97093.80
2018-09-26T09:32:45.008Z,97097.29
2018-09-26T09:35:15.130Z,97095.59
2018-09-26T09:37:44.176Z,97098.12
2018-09-26T09:40:13.264Z,97095.89
2018-09-26T09:42:42.392Z,97105.72
2018-09-26T09:45:11.468Z,97092.44
2018-09-26T09:47:40.566Z,97091.05
2018-09-26T09:50:09.651Z,97087.81
2018-09-26T09:52:38.665Z,97090.63
2018-09-26T09:55:07.723Z,97094.41
2018-09-26T09:57:36.784Z,97085.48
2018-09-26T10:00:05.838Z,97081.35
2018-09-26T10:02:34.985Z,97077.59
2018-09-26T10:05:04.126Z,97071.45
2018-09-26T10:07:33.184Z,97074.20
2018-09-26T10:10:02.454Z,97076.52
2018-09-26T10:12:31.517Z,97080.09
2018-09-26T10:15:00.566Z,97084.89
2018-09-26T10:17:29.685Z,97083.38
2018-09-26T10:19:58.695Z,97081.33
2018-09-26T10:22:27.733Z,97086.39
2018-09-26T10:24:57.728Z,97088.16
2018-09-26T10:30:02.664Z,97080.50
2018-09-26T10:32:31.740Z,97084.63
2018-09-26T10:37:41.754Z,97081.53
2018-09-26T10:40:10.829Z,97079.59
2018-09-26T10:45:15.757Z,97090.63
2018-09-26T10:47:44.805Z,97083.81
2018-09-26T10:50:13.872Z,97084.09
2018-09-26T10:55:22.535Z,97075.02
2018-09-26T11:00:27.441Z,97082.00
2018-09-26T11:02:56.514Z,97086.69
2018-09-26T11:05:25.558Z,97079.74
2018-09-26T11:07:58.781Z,97076.48
2018-09-26T11:10:27.969Z,97077.03
2018-09-26T11:12:56.893Z,97080.83
2018-09-26T11:15:26.041Z,97084.63
2018-09-26T11:20:30.777Z,97076.13
2018-09-26T11:23:00.761Z,97071.08
2018-09-26T11:25:29.833Z,97076.48
2018-09-26T11:27:58.877Z,97071.27
2018-09-26T11:30:27.987Z,97065.01
2018-09-26T11:32:58.998Z,97068.80
2018-09-26T11:35:28.048Z,97069.89
2018-09-26T11:37:57.111Z,97061.91
2018-09-26T11:40:26.189Z,97059.77
2018-09-26T11:45:31.096Z,97063.84
2018-09-26T11:50:41.212Z,97056.03
2018-09-26T11:53:13.794Z,97045.42
2018-09-26T11:55:43.573Z,97041.95
2018-09-26T11:58:12.633Z,97039.23
2018-09-26T12:00:41.680Z,97032.20
2018-09-26T12:05:46.636Z,97030.81
2018-09-26T12:08:15.695Z,97027.38
2018-09-26T12:10:44.741Z,97032.00
2018-09-26T12:13:13.791Z,97028.96
2018-09-26T12:15:44.795Z,97021.25
2018-09-26T12:18:13.925Z,97018.55
2018-09-26T12:20:42.913Z,97018.08
2018-09-26T12:23:15.673Z,97029.66
2018-09-26T12:25:44.727Z,97023.39
2018-09-26T12:30:49.682Z,97018.31
2018-09-26T12:35:54.545Z,97014.03
2018-09-26T12:38:23.607Z,97007.72
2018-09-26T12:40:52.819Z,97007.38
2018-09-26T12:43:21.857Z,97005.25
2018-09-26T12:45:50.919Z,97004.81
2018-09-26T12:48:20.037Z,97004.00
2018-09-26T12:50:49.033Z,97002.25
2018-09-26T12:55:53.884Z,97004.12
2018-09-26T12:58:24.208Z,97004.34
2018-09-26T13:00:55.207Z,97009.51
2018-09-26T13:03:24.259Z,97004.14
2018-09-26T13:08:29.195Z,97005.72
2018-09-26T13:13:33.959Z,96993.16
2018-09-26T13:18:43.722Z,96991.79
2018-09-26T13:21:12.765Z,96994.77
2018-09-26T13:23:43.832Z,96991.17
2018-09-26T13:26:12.872Z,96990.27
2018-09-26T13:31:18.061Z,96976.13
2018-09-26T13:33:47.108Z,96980.48
2018-09-26T13:36:16.203Z,96979.84
2018-09-26T13:38:45.217Z,96981.38
2018-09-26T13:43:50.050Z,96982.87
2018-09-26T13:46:19.240Z,96987.76
2018-09-26T13:48:48.165Z,96980.80
2018-09-26T13:53:57.043Z,96984.97
2018-09-26T13:56:26.086Z,96987.39
2018-09-26T13:58:55.146Z,96986.25
2018-09-26T14:06:35.805Z,96978.73
2018-09-26T14:09:04.892Z,96975.52
2018-09-26T14:11:33.963Z,96972.01
2018-09-26T14:14:03.028Z,96976.78
2018-09-26T14:16:33.989Z,96973.02
2018-09-26T14:19:03.045Z,96974.75
2018-09-26T14:21:32.102Z,96969.71
2018-09-26T14:24:01.142Z,96972.74
2018-09-26T14:26:30.191Z,96968.63
2018-09-26T14:29:03.702Z,96963.52
2018-09-26T14:31:33.712Z,96963.67
2018-09-26T14:34:02.761Z,96960.30
2018-09-26T14:36:31.866Z,96959.13
2018-09-26T14:39:01.012Z,96954.66
2018-09-26T14:41:29.983Z,96946.16
2018-09-26T14:44:00.953Z,96945.77
2018-09-26T14:46:29.993Z,96941.72
2018-09-26T14:48:59.041Z,96951.27
2018-09-26T14:51:28.115Z,96951.89
2018-09-26T14:53:57.214Z,96950.78
2018-09-26T14:56:26.307Z,96944.77
2018-09-26T14:58:56.248Z,96944.86
2018-09-26T15:01:26.393Z,96950.67
2018-09-26T15:03:55.446Z,96955.09
2018-09-26T15:06:24.811Z,96948.22
2018-09-26T15:08:53.789Z,96946.63
2018-09-26T15:11:22.838Z,96949.09
2018-09-26T15:13:51.885Z,96944.53
2018-09-26T15:16:22.004Z,96939.55
2018-09-26T15:18:52.960Z,96937.43
2018-09-26T15:21:22.001Z,96943.70
2018-09-26T15:23:51.149Z,96946.69
2018-09-26T15:28:55.961Z,96938.24
2018-09-26T15:31:25.216Z,96935.36
2018-09-26T15:36:30.061Z,96927.94
2018-09-26T15:38:59.115Z,96931.02
2018-09-26T15:41:29.243Z,96935.70
2018-09-26T15:43:58.221Z,96935.55
2018-09-26T15:46:27.269Z,96936.93
2018-09-26T15:48:56.488Z,96937.25
2018-09-26T15:54:01.315Z,96936.32
2018-09-26T15:56:30.360Z,96930.80
2018-09-26T16:01:35.229Z,96929.42
2018-09-26T16:04:04.370Z,96932.81
2018-09-26T16:06:33.519Z,96936.89
2018-09-26T16:09:02.580Z,96943.94
2018-09-26T16:11:31.630Z,96940.92
2018-09-26T16:14:00.767Z,96941.97
2018-09-26T16:16:29.806Z,96940.85
2018-09-26T16:18:59.056Z,96945.19
2018-09-26T16:21:28.105Z,96945.91
2018-09-26T16:23:57.161Z,96947.46
2018-09-26T16:26:26.267Z,96949.15
2018-09-26T16:28:55.305Z,96945.82
2018-09-26T16:34:00.098Z,96941.60
2018-09-26T16:36:29.130Z,96942.08
2018-09-26T16:39:00.233Z,96936.09
2018-09-26T16:41:29.220Z,96936.56
2018-09-26T16:43:58.260Z,96940.02
2018-09-26T16:46:27.374Z,96943.27
2018-09-26T16:48:56.395Z,96949.45
2018-09-26T16:51:26.526Z,96949.77
2018-09-26T17:01:43.961Z,96959.73
2018-09-26T17:04:13.133Z,96957.08
2018-09-26T17:06:42.177Z,96960.36
2018-09-26T17:09:15.160Z,96958.47
2018-09-26T17:11:47.338Z,96957.34
2018-09-26T17:14:16.421Z,96961.73
2018-09-26T17:16:45.422Z,96961.77
2018-09-26T17:19:14.470Z,96963.95
2018-09-26T17:21:43.524Z,96960.56
2018-09-26T17:24:12.583Z,96963.34
2018-09-26T17:26:41.623Z,96967.09
2018-09-26T17:29:13.201Z,96967.19
2018-09-26T17:31:42.225Z,96967.23
2018-09-26T17:34:11.291Z,96971.94
2018-09-26T17:36:40.324Z,96969.19
2018-09-26T17:39:09.370Z,96973.00
2018-09-26T17:41:41.652Z,96978.34
2018-09-26T17:44:10.676Z,96980.69
2018-09-26T17:46:39.734Z,96986.33
2018-09-26T17:49:08.803Z,96987.16
2018-09-26T17:51:37.831Z,96988.78
2018-09-26T17:54:07.957Z,96991.66
2018-09-26T17:56:40.325Z,96984.93
2018-09-26T17:59:09.425Z,96985.84
2018-09-26T18:01:38.465Z,96989.80
2018-09-26T18:06:43.704Z,96997.84
2018-09-26T18:09:12.793Z,96996.05
2018-09-26T18:11:41.801Z,96993.87
2018-09-26T18:14:10.848Z,96993.80
2018-09-26T18:16:39.886Z,96993.09
2018-09-26T18:19:08.926Z,96995.44
2018-09-26T18:21:38.044Z,96996.94
2018-09-26T18:26:42.884Z,96995.33
2018-09-26T18:29:11.925Z,97002.11
2018-09-26T18:31:40.973Z,97004.61
2018-09-26T18:34:10.014Z,97009.52
2018-09-26T18:36:39.087Z,97013.42
2018-09-26T18:41:47.374Z,97019.34
2018-09-26T18:44:16.444Z,97028.11
2018-09-26T18:46:45.528Z,97028.51
2018-09-26T18:49:26.401Z,97029.14
2018-09-26T18:51:57.062Z,97032.73
2018-09-26T18:54:27.061Z,97035.22
2018-09-26T18:56:56.148Z,97039.61
2018-09-26T18:59:25.256Z,97039.07
2018-09-26T19:01:54.220Z,97040.34
2018-09-26T19:04:23.272Z,97043.03
2018-09-26T19:09:28.058Z,97047.34
2018-09-26T19:11:59.113Z,97055.64
2018-09-26T19:14:28.097Z,97060.25
2018-09-26T19:16:57.152Z,97059.16
2018-09-26T19:19:26.198Z,97059.92
2018-09-26T19:21:56.866Z,97060.61
2018-09-26T19:24:25.904Z,97057.91
2018-09-26T19:26:54.979Z,97057.27
2018-09-26T19:29:23.983Z,97057.46
2018-09-26T19:31:53.054Z,97056.25
2018-09-26T19:34:24.020Z,97057.06
2018-09-26T19:36:53.061Z,97055.52
2018-09-26T19:39:23.040Z,97053.14
2018-09-26T19:41:52.181Z,97055.39
2018-09-26T19:44:25.138Z,97052.34
2018-09-26T19:46:57.007Z,97059.79
2018-09-26T19:52:02.036Z,97070.06
2018-09-26T19:54:32.018Z,97064.75
2018-09-26T19:57:01.943Z,97072.57
2018-09-26T20:02:06.742Z,97076.48
2018-09-26T20:04:35.727Z,97075.94
2018-09-26T20:09:40.529Z,97069.03
2018-09-26T20:12:09.570Z,97069.12
2018-09-26T20:17:14.378Z,97067.73
2018-09-26T20:19:43.449Z,97072.00
2018-09-26T20:22:12.465Z,97069.45
2018-09-26T20:24:43.474Z,97072.63
2018-09-26T20:27:12.665Z,97071.32
2018-09-26T20:29:42.694Z,97066.86
2018-09-26T20:32:11.532Z,97065.98
2018-09-26T20:34:40.568Z,97064.33
2018-09-26T20:37:09.675Z,97063.62
2018-09-26T20:39:38.636Z,97067.08
2018-09-26T20:42:07.693Z,97063.91
2018-09-26T20:44:37.685Z,97066.01
2018-09-26T20:49:43.415Z,97068.48
2018-09-26T20:52:12.492Z,97065.70
2018-09-26T20:54:41.525Z,97067.36
2018-09-26T20:59:46.764Z,97064.48
2018-09-26T21:02:15.952Z,97066.50
2018-09-26T21:04:44.993Z,97068.91
2018-09-26T21:09:50.765Z,97062.80
2018-09-26T21:14:55.506Z,97056.66
2018-09-26T21:17:25.493Z,97050.09
2018-09-26T21:19:54.516Z,97049.70
2018-09-26T21:22:24.499Z,97045.30
2018-09-26T21:24:53.547Z,97049.48
2018-09-26T21:29:58.273Z,97046.39
2018-09-26T21:32:30.602Z,97044.88
2018-09-26T21:37:39.049Z,97042.20
2018-09-26T21:42:43.921Z,97040.67
2018-09-26T21:45:12.991Z,97040.66
2018-09-26T21:47:42.102Z,97042.44
2018-09-26T21:50:11.167Z,97042.27
2018-09-26T21:52:40.215Z,97045.56
2018-09-26T21:55:09.229Z,97038.12
2018-09-26T21:57:39.208Z,97039.28
2018-09-26T22:08:18.700Z,97034.90
2018-09-26T22:10:47.865Z,97040.41
2018-09-26T22:15:52.671Z,97033.52
2018-09-26T22:18:21.816Z,97031.04
2018-09-26T22:23:26.677Z,97031.70
2018-09-26T22:25:55.798Z,97036.00
2018-09-26T22:28:24.952Z,97032.17
2018-09-26T22:30:55.268Z,97025.97
2018-09-26T22:33:24.394Z,97027.71
2018-09-26T22:35:53.493Z,97030.02
2018-09-26T22:40:58.305Z,97020.95
2018-09-26T22:43:28.397Z,97020.24
2018-09-26T22:45:57.668Z,97019.09
2018-09-26T22:48:26.800Z,97017.30
2018-09-26T22:50:56.993Z,97018.00
2018-09-26T22:53:26.106Z,97017.19
2018-09-26T22:58:30.923Z,97009.55
2018-09-26T23:01:00.001Z,97008.39
2018-09-26T23:03:31.091Z,97010.21
2018-09-26T23:06:01.152Z,97005.14
2018-09-26T23:08:30.244Z,97001.26
2018-09-26T23:10:59.345Z,96999.00
2018-09-26T23:13:28.436Z,96998.78
2018-09-26T23:15:57.563Z,96997.80
2018-09-26T23:18:27.636Z,96996.73
2018-09-26T23:23:32.441Z,96995.27
2018-09-26T23:26:01.531Z,96994.83
2018-09-26T23:31:06.391Z,96996.01
2018-09-26T23:33:35.591Z,96994.20
2018-09-26T23:36:09.141Z,96991.18
2018-09-26T23:41:13.949Z,96987.80
2018-09-26T23:43:43.047Z,96985.05
2018-09-26T23:46:12.132Z,96979.62
2018-09-26T23:53:52.739Z,96975.41
2018-09-26T23:58:57.583Z,96972.51
